createdAt,value
2023-02-03T00:00:06.542Z,99731.00
2023-02-03T00:02:37.809Z,99728.00
2023-02-03T00:05:04.605Z,99741.00
2023-02-03T00:07:31.162Z,99730.00
2023-02-03T00:09:58.011Z,99725.00
2023-02-03T00:12:24.518Z,99732.00
2023-02-03T00:14:51.147Z,99735.00
2023-02-03T00:17:17.637Z,99743.00
2023-02-03T00:19:44.175Z,99746.00
2023-02-03T00:22:10.697Z,99734.00
2023-02-03T00:24:37.189Z,99748.00
2023-02-03T00:27:03.708Z,99749.00
2023-02-03T00:29:30.399Z,99752.00
2023-02-03T00:31:58.901Z,99751.00
2023-02-03T00:34:30.123Z,99741.00
2023-02-03T00:36:57.395Z,99740.00
2023-02-03T00:39:23.966Z,99731.00
2023-02-03T00:41:50.452Z,99718.00
2023-02-03T00:44:16.986Z,99715.00
2023-02-03T00:46:43.446Z,99697.00
2023-02-03T00:49:09.908Z,99702.00
2023-02-03T00:51:36.381Z,99703.00
2023-02-03T00:54:03.089Z,99701.00
2023-02-03T00:56:29.651Z,99714.00
2023-02-03T00:58:56.180Z,99736.00
2023-02-03T01:01:22.787Z,99726.00
2023-02-03T01:03:50.135Z,99728.00
2023-02-03T01:06:19.391Z,99721.00
2023-02-03T01:08:47.558Z,99701.00
2023-02-03T01:11:17.235Z,99722.00
2023-02-03T01:13:44.659Z,99716.00
2023-02-03T01:16:13.856Z,99722.00
2023-02-03T01:18:41.426Z,99713.00
2023-02-03T01:21:12.175Z,99716.00
2023-02-03T01:23:38.897Z,99707.00
2023-02-03T01:26:07.236Z,99695.00
2023-02-03T01:28:34.668Z,99683.00
2023-02-03T01:31:16.188Z,99678.00
2023-02-03T01:33:46.164Z,99673.00
2023-02-03T01:36:14.002Z,99662.00
2023-02-03T01:38:40.586Z,99647.00
2023-02-03T01:41:10.974Z,99622.00
2023-02-03T01:43:40.673Z,99609.00
2023-02-03T01:46:20.485Z,99601.00
2023-02-03T01:48:47.205Z,99614.00
2023-02-03T01:51:13.751Z,99636.00
2023-02-03T01:53:40.781Z,99640.00
2023-02-03T01:56:08.439Z,99638.00
2023-02-03T01:58:39.457Z,99629.00
2023-02-03T02:01:06.938Z,99630.00
2023-02-03T02:03:45.247Z,99622.00
2023-02-03T02:06:14.454Z,99621.00
2023-02-03T02:08:44.283Z,99619.00
2023-02-03T02:11:11.146Z,99612.00
2023-02-03T02:13:41.367Z,99624.00
2023-02-03T02:16:17.130Z,99620.00
2023-02-03T02:19:15.951Z,99622.00
2023-02-03T02:22:10.659Z,99636.00
2023-02-03T02:24:52.754Z,99630.00
2023-02-03T02:27:53.161Z,99622.00
2023-02-03T02:30:50.849Z,99611.00
2023-02-03T02:33:33.412Z,99617.00
2023-02-03T02:36:21.489Z,99612.00
2023-02-03T02:39:12.508Z,99615.00
2023-02-03T02:42:32.844Z,99627.00
2023-02-03T02:45:10.372Z,99625.00
2023-02-03T02:47:37.897Z,99619.00
2023-02-03T02:50:11.799Z,99613.00
2023-02-03T02:52:42.611Z,99619.00
2023-02-03T02:55:32.250Z,99620.00
2023-02-03T02:58:07.490Z,99628.00
2023-02-03T03:00:35.544Z,99635.00
2023-02-03T03:03:22.778Z,99651.00
2023-02-03T03:06:01.490Z,99654.00
2023-02-03T03:08:51.155Z,99656.00
2023-02-03T03:11:18.409Z,99649.00
2023-02-03T03:13:55.862Z,99661.00
2023-02-03T03:16:29.564Z,99672.00
2023-02-03T03:19:12.957Z,99673.00
2023-02-03T03:21:47.639Z,99681.00
2023-02-03T03:24:18.531Z,99685.00
2023-02-03T03:26:54.233Z,99697.00
2023-02-03T03:29:35.113Z,99704.00
2023-02-03T03:32:02.806Z,99713.00
2023-02-03T03:34:30.560Z,99706.00
2023-02-03T03:37:41.253Z,99708.00
2023-02-03T03:40:16.219Z,99704.00
2023-02-03T03:42:55.026Z,99691.00
2023-02-03T03:45:45.838Z,99686.00
2023-02-03T03:48:36.393Z,99669.00
2023-02-03T03:51:17.243Z,99668.00
2023-02-03T03:53:45.737Z,99661.00
2023-02-03T03:56:17.328Z,99653.00
2023-02-03T03:58:46.745Z,99664.00
2023-02-03T04:01:15.377Z,99660.00
2023-02-03T04:03:46.942Z,99660.00
2023-02-03T04:06:13.576Z,99647.00
2023-02-03T04:08:40.159Z,99636.00
2023-02-03T04:11:07.399Z,99635.00
2023-02-03T04:13:33.957Z,99640.00
2023-02-03T04:16:00.482Z,99665.00
2023-02-03T04:18:27.058Z,99676.00
2023-02-03T04:20:53.819Z,99668.00
2023-02-03T04:23:20.331Z,99671.00
2023-02-03T04:25:46.805Z,99665.00
2023-02-03T04:28:13.324Z,99647.00
2023-02-03T04:30:39.866Z,99643.00
2023-02-03T04:33:06.327Z,99639.00
2023-02-03T04:35:32.822Z,99654.00
2023-02-03T04:37:59.357Z,99651.00
2023-02-03T04:40:25.962Z,99656.00
2023-02-03T04:42:52.626Z,99667.00
2023-02-03T04:45:19.166Z,99667.00
2023-02-03T04:47:45.716Z,99661.00
2023-02-03T04:50:12.192Z,99671.00
2023-02-03T04:52:38.711Z,99668.00
2023-02-03T04:55:05.567Z,99671.00
2023-02-03T04:57:32.071Z,99663.00
2023-02-03T04:59:58.518Z,99657.00
2023-02-03T05:02:25.058Z,99649.00
2023-02-03T05:04:51.821Z,99653.00
2023-02-03T05:07:18.299Z,99655.00
2023-02-03T05:09:44.786Z,99652.00
2023-02-03T05:12:11.290Z,99642.00
2023-02-03T05:14:37.778Z,99640.00
2023-02-03T05:17:04.257Z,99641.00
2023-02-03T05:19:30.758Z,99651.00
2023-02-03T05:21:57.234Z,99632.00
2023-02-03T05:24:23.953Z,99633.00
2023-02-03T05:26:50.444Z,99627.00
2023-02-03T05:29:17.021Z,99630.00
2023-02-03T05:31:43.542Z,99634.00
2023-02-03T05:34:10.227Z,99647.00
2023-02-03T05:36:36.725Z,99651.00
2023-02-03T05:39:03.676Z,99633.00
2023-02-03T05:41:59.085Z,99626.00
2023-02-03T05:44:28.429Z,99635.00
2023-02-03T05:46:57.461Z,99620.00
2023-02-03T05:49:25.239Z,99631.00
2023-02-03T05:51:55.925Z,99633.00
2023-02-03T05:54:22.826Z,99644.00
2023-02-03T05:56:49.379Z,99642.00
2023-02-03T05:59:15.856Z,99640.00
2023-02-03T06:01:42.287Z,99645.00
2023-02-03T06:04:08.973Z,99640.00
2023-02-03T06:06:35.653Z,99647.00
2023-02-03T06:09:07.753Z,99647.00
2023-02-03T06:11:35.702Z,99637.00
2023-02-03T06:14:02.515Z,99649.00
2023-02-03T06:16:29.378Z,99651.00
2023-02-03T06:19:01.057Z,99644.00
2023-02-03T06:21:28.688Z,99633.00
2023-02-03T06:23:56.502Z,99647.00
2023-02-03T06:26:23.351Z,99647.00
2023-02-03T06:28:49.842Z,99636.00
2023-02-03T06:31:16.617Z,99636.00
2023-02-03T06:33:43.187Z,99607.00
2023-02-03T06:36:09.989Z,99612.00
2023-02-03T06:38:36.469Z,99620.00
2023-02-03T06:41:03.109Z,99610.00
2023-02-03T06:43:29.667Z,99615.00
2023-02-03T06:45:56.186Z,99612.00
2023-02-03T06:48:23.767Z,99620.00
2023-02-03T06:50:50.378Z,99618.00
2023-02-03T06:53:16.944Z,99612.00
2023-02-03T06:55:43.636Z,99616.00
2023-02-03T06:58:10.486Z,99603.00
2023-02-03T07:00:37.230Z,99607.00
2023-02-03T07:03:04.533Z,99607.00
2023-02-03T07:05:31.224Z,99615.00
2023-02-03T07:08:03.506Z,99618.00
2023-02-03T07:10:30.275Z,99629.00
2023-02-03T07:13:02.747Z,99632.00
2023-02-03T07:15:29.531Z,99637.00
2023-02-03T07:18:01.923Z,99650.00
2023-02-03T07:20:29.950Z,99660.00
2023-02-03T07:22:59.155Z,99658.00
2023-02-03T07:25:26.048Z,99655.00
2023-02-03T07:27:52.637Z,99668.00
2023-02-03T07:30:19.595Z,99678.00
2023-02-03T07:32:53.090Z,99686.00
2023-02-03T07:35:20.535Z,99680.00
2023-02-03T07:37:50.048Z,99680.00
2023-02-03T07:40:17.651Z,99694.00
2023-02-03T07:42:46.307Z,99688.00
2023-02-03T07:45:15.994Z,99690.00
2023-02-03T07:47:47.302Z,99688.00
2023-02-03T07:50:14.291Z,99676.00
2023-02-03T07:52:41.015Z,99673.00
2023-02-03T07:55:09.224Z,99684.00
2023-02-03T07:57:45.282Z,99683.00
2023-02-03T08:00:14.384Z,99694.00
2023-02-03T08:02:47.046Z,99673.00
2023-02-03T08:05:14.409Z,99678.00
2023-02-03T08:07:41.508Z,99670.00
2023-02-03T08:10:09.420Z,99691.00
2023-02-03T08:12:35.969Z,99685.00
2023-02-03T08:15:02.923Z,99673.00
2023-02-03T08:17:29.542Z,99679.00
2023-02-03T08:19:56.152Z,99665.00
2023-02-03T08:22:22.631Z,99678.00
2023-02-03T08:24:49.350Z,99684.00
2023-02-03T08:27:18.149Z,99685.00
2023-02-03T08:29:46.075Z,99682.00
2023-02-03T08:32:15.974Z,99694.00
2023-02-03T08:34:42.517Z,99686.00
2023-02-03T08:37:11.463Z,99695.00
2023-02-03T08:39:38.449Z,99694.00
2023-02-03T08:42:06.136Z,99686.00
2023-02-03T08:44:33.798Z,99678.00
2023-02-03T08:47:00.774Z,99672.00
2023-02-03T08:49:29.297Z,99679.00
2023-02-03T08:51:57.151Z,99679.00
2023-02-03T08:54:24.688Z,99687.00
2023-02-03T08:56:51.634Z,99690.00
2023-02-03T08:59:18.382Z,99707.00
2023-02-03T09:01:45.911Z,99692.00
2023-02-03T09:04:13.220Z,99698.00
2023-02-03T09:06:39.764Z,99690.00
2023-02-03T09:09:06.233Z,99693.00
2023-02-03T09:11:32.726Z,99695.00
2023-02-03T09:13:59.240Z,99691.00
2023-02-03T09:16:25.947Z,99695.00
2023-02-03T09:18:52.532Z,99681.00
2023-02-03T09:21:32.144Z,99683.00
2023-02-03T09:24:03.846Z,99686.00
2023-02-03T09:26:30.572Z,99672.00
2023-02-03T09:28:57.098Z,99690.00
2023-02-03T09:31:23.742Z,99668.00
2023-02-03T09:33:50.246Z,99670.00
2023-02-03T09:36:16.732Z,99677.00
2023-02-03T09:38:43.250Z,99677.00
2023-02-03T09:41:47.206Z,99680.00
2023-02-03T09:44:36.983Z,99693.00
2023-02-03T09:47:12.049Z,99691.00
2023-02-03T09:49:47.209Z,99687.00
2023-02-03T09:52:23.179Z,99677.00
2023-02-03T09:55:00.997Z,99682.00
2023-02-03T09:57:31.282Z,99675.00
2023-02-03T10:00:01.882Z,99672.00
2023-02-03T10:03:00.652Z,99660.00
2023-02-03T10:05:46.925Z,99652.00
2023-02-03T10:08:38.359Z,99653.00
2023-02-03T10:11:30.768Z,99652.00
2023-02-03T10:14:09.270Z,99669.00
2023-02-03T10:16:53.879Z,99663.00
2023-02-03T10:19:26.923Z,99662.00
2023-02-03T10:21:57.886Z,99663.00
2023-02-03T10:24:29.945Z,99659.00
2023-02-03T10:26:57.210Z,99660.00
2023-02-03T10:29:45.348Z,99666.00
2023-02-03T10:32:13.185Z,99656.00
2023-02-03T10:34:41.904Z,99654.00
2023-02-03T10:37:23.938Z,99653.00
2023-02-03T10:39:52.836Z,99653.00
2023-02-03T10:42:20.256Z,99655.00
2023-02-03T10:44:57.457Z,99655.00
2023-02-03T10:47:39.684Z,99653.00
2023-02-03T10:50:18.123Z,99644.00
2023-02-03T10:52:44.923Z,99647.00
2023-02-03T10:55:26.700Z,99642.00
2023-02-03T10:57:54.633Z,99643.00
2023-02-03T11:00:29.373Z,99640.00
2023-02-03T11:03:06.355Z,99641.00
2023-02-03T11:05:33.853Z,99642.00
2023-02-03T11:08:00.885Z,99633.00
2023-02-03T11:10:37.951Z,99625.00
2023-02-03T11:13:19.403Z,99616.00
2023-02-03T11:15:53.161Z,99619.00
2023-02-03T11:18:47.697Z,99620.00
2023-02-03T11:21:19.282Z,99639.00
2023-02-03T11:24:15.438Z,99628.00
2023-02-03T11:26:46.083Z,99614.00
2023-02-03T11:29:23.995Z,99599.00
2023-02-03T11:31:53.364Z,99605.00
2023-02-03T11:34:28.159Z,99624.00
2023-02-03T11:36:54.909Z,99617.00
2023-02-03T11:39:30.168Z,99628.00
2023-02-03T11:41:57.025Z,99630.00
2023-02-03T11:44:26.352Z,99641.00
2023-02-03T11:47:01.190Z,99650.00
2023-02-03T11:49:54.604Z,99659.00
2023-02-03T11:52:43.046Z,99668.00
2023-02-03T11:55:15.555Z,99670.00
2023-02-03T11:58:06.416Z,99672.00
2023-02-03T12:01:20.688Z,99684.00
2023-02-03T12:04:21.711Z,99672.00
2023-02-03T12:07:03.477Z,99690.00
2023-02-03T12:09:53.625Z,99685.00
2023-02-03T12:12:20.119Z,99693.00
2023-02-03T12:15:16.981Z,99689.00
2023-02-03T12:17:58.385Z,99680.00
2023-02-03T12:20:35.783Z,99680.00
2023-02-03T12:23:24.604Z,99680.00
2023-02-03T12:26:15.933Z,99675.00
2023-02-03T12:29:01.174Z,99669.00
2023-02-03T12:31:38.090Z,99649.00
2023-02-03T12:34:25.003Z,99630.00
2023-02-03T12:36:59.124Z,99633.00
2023-02-03T12:39:33.760Z,99645.00
2023-02-03T12:42:14.195Z,99636.00
2023-02-03T12:44:47.833Z,99628.00
2023-02-03T12:47:36.419Z,99628.00
2023-02-03T12:50:22.156Z,99625.00
2023-02-03T12:53:00.614Z,99629.00
2023-02-03T12:55:27.066Z,99620.00
2023-02-03T12:58:01.452Z,99612.00
2023-02-03T13:00:38.677Z,99606.00
2023-02-03T13:03:14.993Z,99611.00
2023-02-03T13:06:03.990Z,99602.00
2023-02-03T13:09:01.895Z,99591.00
2023-02-03T13:11:31.991Z,99600.00
2023-02-03T13:14:20.425Z,99597.00
2023-02-03T13:16:53.675Z,99595.00
2023-02-03T13:19:27.738Z,99593.00
2023-02-03T13:21:54.180Z,99594.00
2023-02-03T13:24:25.090Z,99599.00
2023-02-03T13:27:03.647Z,99586.00
2023-02-03T13:30:00.060Z,99590.00
2023-02-03T13:33:02.347Z,99591.00
2023-02-03T13:35:50.999Z,99582.00
2023-02-03T13:38:33.378Z,99573.00
2023-02-03T13:41:15.870Z,99563.00
2023-02-03T13:43:48.302Z,99565.00
2023-02-03T13:46:23.837Z,99562.00
2023-02-03T13:48:51.717Z,99580.00
2023-02-03T13:51:22.505Z,99580.00
2023-02-03T13:53:51.126Z,99564.00
2023-02-03T13:56:22.862Z,99566.00
2023-02-03T13:59:14.514Z,99556.00
2023-02-03T14:01:42.505Z,99553.00
2023-02-03T14:04:29.378Z,99550.00
2023-02-03T14:06:58.951Z,99552.00
2023-02-03T14:09:31.816Z,99551.00
2023-02-03T14:12:32.415Z,99544.00
2023-02-03T14:15:05.019Z,99562.00
2023-02-03T14:17:34.620Z,99569.00
2023-02-03T14:20:03.505Z,99586.00
2023-02-03T14:22:31.505Z,99578.00
2023-02-03T14:25:08.551Z,99579.00
2023-02-03T14:27:35.076Z,99586.00
2023-02-03T14:30:10.034Z,99585.00
2023-02-03T14:32:51.848Z,99595.00
2023-02-03T14:35:32.683Z,99590.00
2023-02-03T14:38:03.650Z,99601.00
2023-02-03T14:40:51.268Z,99584.00
2023-02-03T14:43:43.897Z,99597.00
2023-02-03T14:46:55.741Z,99598.00
2023-02-03T14:49:50.131Z,99596.00
2023-02-03T14:53:04.354Z,99606.00
2023-02-03T14:55:59.974Z,99606.00
2023-02-03T14:58:34.260Z,99607.00
2023-02-03T15:01:04.629Z,99599.00
2023-02-03T15:03:31.527Z,99604.00
2023-02-03T15:06:02.399Z,99607.00
2023-02-03T15:08:42.564Z,99622.00
2023-02-03T15:11:16.495Z,99615.00
2023-02-03T15:13:42.953Z,99618.00
2023-02-03T15:16:16.001Z,99619.00
2023-02-03T15:18:42.593Z,99629.00
2023-02-03T15:21:20.194Z,99620.00
2023-02-03T15:23:49.279Z,99634.00
2023-02-03T15:26:19.935Z,99628.00
2023-02-03T15:29:07.102Z,99637.00
2023-02-03T15:31:45.675Z,99619.00
2023-02-03T15:34:36.149Z,99634.00
2023-02-03T15:37:18.204Z,99625.00
2023-02-03T15:39:59.884Z,99622.00
2023-02-03T15:42:58.871Z,99619.00
2023-02-03T15:45:35.254Z,99628.00
2023-02-03T15:48:17.885Z,99629.00
2023-02-03T15:50:57.415Z,99624.00
2023-02-03T15:53:45.144Z,99633.00
2023-02-03T15:56:21.518Z,99626.00
2023-02-03T15:58:49.453Z,99623.00
2023-02-03T16:01:21.142Z,99623.00
2023-02-03T16:03:52.643Z,99634.00
2023-02-03T16:06:39.866Z,99638.00
2023-02-03T16:09:25.353Z,99650.00
2023-02-03T16:12:22.209Z,99646.00
2023-02-03T16:14:49.349Z,99643.00
2023-02-03T16:17:27.760Z,99646.00
2023-02-03T16:20:12.544Z,99643.00
2023-02-03T16:22:44.854Z,99640.00
2023-02-03T16:25:27.135Z,99647.00
2023-02-03T16:28:16.441Z,99642.00
2023-02-03T16:31:16.494Z,99650.00
2023-02-03T16:34:06.285Z,99656.00
2023-02-03T16:36:51.297Z,99648.00
2023-02-03T16:39:36.416Z,99637.00
2023-02-03T16:42:32.601Z,99637.00
2023-02-03T16:45:17.893Z,99634.00
2023-02-03T16:48:04.653Z,99640.00
2023-02-03T16:50:52.670Z,99631.00
2023-02-03T16:53:28.329Z,99641.00
2023-02-03T16:55:57.026Z,99650.00
2023-02-03T16:58:24.402Z,99650.00
2023-02-03T17:00:52.914Z,99648.00
2023-02-03T17:03:24.860Z,99652.00
2023-02-03T17:05:52.148Z,99666.00
2023-02-03T17:08:21.584Z,99663.00
2023-02-03T17:10:49.341Z,99667.00
2023-02-03T17:13:19.911Z,99673.00
2023-02-03T17:15:54.489Z,99684.00
2023-02-03T17:18:21.417Z,99695.00
2023-02-03T17:20:48.071Z,99695.00
2023-02-03T17:23:16.487Z,99700.00
2023-02-03T17:25:47.794Z,99710.00
2023-02-03T17:28:15.425Z,99693.00
2023-02-03T17:30:42.334Z,99701.00
2023-02-03T17:33:12.238Z,99719.00
2023-02-03T17:35:43.897Z,99713.00
2023-02-03T17:38:11.703Z,99711.00
2023-02-03T17:54:30.488Z,99703.00
2023-02-03T17:56:57.003Z,99710.00
2023-02-03T17:59:23.474Z,99700.00
2023-02-03T18:01:49.983Z,99703.00
2023-02-03T18:04:16.470Z,99708.00
2023-02-03T18:06:43.168Z,99703.00
2023-02-03T18:09:10.660Z,99702.00
2023-02-03T18:11:37.741Z,99706.00
2023-02-03T18:14:05.422Z,99699.00
2023-02-03T18:16:34.709Z,99714.00
2023-02-03T18:19:04.835Z,99713.00
2023-02-03T18:21:34.077Z,99717.00
2023-02-03T18:24:01.930Z,99707.00
2023-02-03T18:26:34.324Z,99701.00
2023-02-03T18:29:01.212Z,99696.00
2023-02-03T18:31:28.417Z,99713.00
2023-02-03T18:33:55.037Z,99711.00
2023-02-03T18:36:21.941Z,99719.00
2023-02-03T18:38:48.891Z,99717.00
2023-02-03T18:41:18.756Z,99712.00
2023-02-03T18:43:46.841Z,99707.00
2023-02-03T18:46:20.149Z,99713.00
2023-02-03T18:48:46.755Z,99724.00
2023-02-03T18:51:15.776Z,99725.00
2023-02-03T18:53:44.928Z,99721.00
2023-02-03T18:56:20.138Z,99720.00
2023-02-03T18:58:47.136Z,99726.00
2023-02-03T19:01:29.310Z,99726.00
2023-02-03T19:03:57.476Z,99719.00
2023-02-03T19:06:25.086Z,99719.00
2023-02-03T19:08:52.139Z,99728.00
2023-02-03T19:11:19.592Z,99734.00
2023-02-03T19:13:46.192Z,99743.00
2023-02-03T19:16:14.802Z,99733.00
2023-02-03T19:18:41.426Z,99745.00
2023-02-03T19:21:07.970Z,99748.00
2023-02-03T19:23:34.427Z,99749.00
2023-02-03T19:26:01.986Z,99758.00
2023-02-03T19:28:31.215Z,99748.00
2023-02-03T19:31:11.991Z,99762.00
2023-02-03T19:33:38.767Z,99766.00
2023-02-03T19:36:06.574Z,99773.00
2023-02-03T19:38:33.341Z,99775.00
2023-02-03T19:41:01.649Z,99779.00
2023-02-03T19:43:29.523Z,99767.00
2023-02-03T19:45:56.041Z,99766.00
2023-02-03T19:48:22.671Z,99770.00
2023-02-03T19:50:49.615Z,99774.00
2023-02-03T19:53:18.280Z,99778.00
2023-02-03T19:55:45.592Z,99776.00
2023-02-03T19:58:13.114Z,99775.00
2023-02-03T20:00:40.477Z,99778.00
2023-02-03T20:03:06.998Z,99786.00
2023-02-03T20:05:34.477Z,99782.00
2023-02-03T20:08:01.147Z,99779.00
2023-02-03T20:10:28.866Z,99784.00
2023-02-03T20:12:55.528Z,99778.00
2023-02-03T20:15:22.069Z,99776.00
2023-02-03T20:17:48.954Z,99786.00
2023-02-03T20:20:18.165Z,99774.00
2023-02-03T20:22:49.959Z,99778.00
2023-02-03T20:25:20.074Z,99787.00
2023-02-03T20:27:46.994Z,99776.00
2023-02-03T20:30:13.948Z,99785.00
2023-02-03T20:32:40.794Z,99776.00
2023-02-03T20:35:11.708Z,99788.00
2023-02-03T20:37:38.416Z,99784.00
2023-02-03T20:40:15.882Z,99784.00
2023-02-03T20:42:42.600Z,99769.00
2023-02-03T20:45:20.514Z,99779.00
2023-02-03T20:47:47.324Z,99763.00
2023-02-03T20:50:18.363Z,99768.00
2023-02-03T20:52:49.755Z,99775.00
2023-02-03T20:55:22.146Z,99766.00
2023-02-03T20:57:54.978Z,99779.00
2023-02-03T21:00:25.234Z,99774.00
2023-02-03T21:03:10.749Z,99784.00
2023-02-03T21:05:42.109Z,99772.00
2023-02-03T21:08:22.726Z,99769.00
2023-02-03T21:10:50.258Z,99771.00
2023-02-03T21:13:29.098Z,99787.00
2023-02-03T21:16:03.465Z,99792.00
2023-02-03T21:18:36.970Z,99794.00
2023-02-03T21:21:03.663Z,99797.00
2023-02-03T21:23:40.021Z,99794.00
2023-02-03T21:26:19.205Z,99796.00
2023-02-03T21:28:47.853Z,99803.00
2023-02-03T21:31:20.368Z,99791.00
2023-02-03T21:33:46.901Z,99795.00
2023-02-03T21:36:18.527Z,99803.00
2023-02-03T21:38:48.870Z,99797.00
2023-02-03T21:41:20.303Z,99795.00
2023-02-03T21:43:50.546Z,99808.00
2023-02-03T21:46:25.643Z,99811.00
2023-02-03T21:49:06.961Z,99812.00
2023-02-03T21:51:36.437Z,99819.00
2023-02-03T21:54:12.922Z,99818.00
2023-02-03T21:56:42.411Z,99818.00
2023-02-03T21:59:21.197Z,99812.00
2023-02-03T22:01:48.421Z,99811.00
2023-02-03T22:04:15.544Z,99826.00
2023-02-03T22:06:44.761Z,99826.00
2023-02-03T22:09:14.029Z,99834.00
2023-02-03T22:11:40.565Z,99829.00
2023-02-03T22:14:07.279Z,99826.00
2023-02-03T22:16:33.936Z,99823.00
2023-02-03T22:19:00.411Z,99828.00
2023-02-03T22:21:27.233Z,99817.00
2023-02-03T22:23:54.034Z,99817.00
2023-02-03T22:26:20.640Z,99804.00
2023-02-03T22:28:47.137Z,99813.00
2023-02-03T22:31:14.456Z,99818.00
2023-02-03T22:33:41.776Z,99817.00
2023-02-03T22:36:10.483Z,99821.00
2023-02-03T22:38:38.296Z,99822.00
2023-02-03T22:41:05.727Z,99819.00
2023-02-03T22:43:32.402Z,99826.00
2023-02-03T22:46:01.371Z,99829.00
2023-02-03T22:48:28.716Z,99826.00
2023-02-03T22:50:55.722Z,99842.00
2023-02-03T22:53:22.243Z,99834.00
2023-02-03T22:55:48.827Z,99832.00
2023-02-03T22:58:15.268Z,99834.00
2023-02-03T23:00:42.017Z,99836.00
2023-02-03T23:03:08.614Z,99843.00
2023-02-03T23:05:35.138Z,99845.00
2023-02-03T23:08:02.116Z,99865.00
2023-02-03T23:10:30.983Z,99865.00
2023-02-03T23:12:58.612Z,99857.00
2023-02-03T23:15:25.672Z,99857.00
2023-02-03T23:17:52.203Z,99865.00
2023-02-03T23:20:18.808Z,99864.00
2023-02-03T23:22:45.623Z,99861.00
2023-02-03T23:25:12.350Z,99863.00
2023-02-03T23:27:39.470Z,99875.00
2023-02-03T23:30:07.172Z,99870.00
2023-02-03T23:32:33.865Z,99858.00
2023-02-03T23:35:22.050Z,99852.00
2023-02-03T23:37:48.566Z,99856.00
2023-02-03T23:40:15.830Z,99851.00
2023-02-03T23:42:46.216Z,99854.00
2023-02-03T23:45:12.969Z,99866.00
2023-02-03T23:47:44.097Z,99861.00
2023-02-03T23:50:13.857Z,99855.00
2023-02-03T23:52:40.380Z,99854.00
2023-02-03T23:55:15.421Z,99855.00
2023-02-03T23:57:45.131Z,99851.00
